Time;durP1;ratioP1;P1;durP2;ratioP2;P2;SDS_P1;SDS_P2;PMS_P1;PMS_P2;Temp;Humidity;BMP_temperature;BMP_pressure;BME280_temperature;BME280_humidity;BME280_pressure;Samples;Min_cycle;Max_cycle;Signal;HPM_P1;HPM_P2
2023/09/15 00:00:17;;;;;;;12.38;9.80;;;12.50;99.90;;;;;;4992577;28;20068;-85
2023/09/15 00:02:43;;;;;;;15.18;9.50;;;12.50;99.90;;;;;;4991614;28;20096;-85
2023/09/15 00:05:10;;;;;;;13.15;10.00;;;12.40;99.90;;;;;;4991259;28;20053;-85
2023/09/15 00:07:36;;;;;;;14.65;9.32;;;12.40;99.90;;;;;;4991959;28;20438;-85
2023/09/15 00:10:03;;;;;;;14.77;9.75;;;12.40;99.90;;;;;;4992231;28;20030;-85
2023/09/15 00:12:29;;;;;;;14.68;9.43;;;12.40;99.90;;;;;;4981335;28;20125;-85
2023/09/15 00:14:54;;;;;;;15.25;9.38;;;12.40;99.90;;;;;;4973039;28;20506;-85
2023/09/15 00:17:20;;;;;;;15.30;9.63;;;12.30;99.90;;;;;;4976548;28;20157;-85
2023/09/15 00:19:46;;;;;;;13.10;8.93;;;12.30;99.90;;;;;;4992131;28;20031;-85
2023/09/15 00:22:11;;;;;;;18.33;9.43;;;12.20;99.90;;;;;;4988943;28;20518;-85
2023/09/15 00:24:37;;;;;;;13.15;9.52;;;12.20;99.90;;;;;;4990397;28;20022;-85
2023/09/15 00:27:02;;;;;;;12.48;8.57;;;12.20;99.90;;;;;;4993411;28;20289;-85
2023/09/15 00:29:28;;;;;;;15.25;9.75;;;12.20;99.90;;;;;;4992157;28;20018;-85
2023/09/15 00:31:55;;;;;;;11.75;8.07;;;12.10;99.90;;;;;;4990345;28;20031;-85
2023/09/15 00:34:20;;;;;;;14.95;9.63;;;12.10;99.90;;;;;;4974773;28;20030;-85
2023/09/15 00:36:46;;;;;;;16.67;9.48;;;12.10;99.90;;;;;;4992388;28;20045;-85
2023/09/15 00:39:12;;;;;;;16.23;8.90;;;12.00;99.90;;;;;;4988254;28;20367;-85
2023/09/15 00:41:37;;;;;;;13.75;9.50;;;12.00;99.90;;;;;;4991519;28;20130;-85
2023/09/15 00:44:03;;;;;;;13.77;9.88;;;11.90;99.90;;;;;;4991093;28;20089;-85
2023/09/15 00:46:30;;;;;;;12.43;9.68;;;11.90;99.90;;;;;;4990865;28;20038;-85
2023/09/15 00:48:57;;;;;;;15.32;10.50;;;11.90;99.90;;;;;;4975325;28;20113;-85
2023/09/15 00:51:23;;;;;;;17.42;9.77;;;11.90;99.90;;;;;;4990998;28;20066;-85
2023/09/15 00:53:49;;;;;;;13.82;9.45;;;11.90;99.90;;;;;;4990061;28;20030;-85
2023/09/15 00:56:16;;;;;;;14.15;9.88;;;11.80;99.90;;;;;;4988936;28;20529;-85
2023/09/15 00:58:42;;;;;;;15.73;10.68;;;11.80;99.90;;;;;;4991937;28;20034;-85
2023/09/15 01:01:09;;;;;;;15.68;10.02;;;11.80;99.90;;;;;;4978136;28;20407;-85
2023/09/15 01:03:39;;;;;;;18.45;10.73;;;11.80;99.90;;;;;;4992309;28;20030;-85
2023/09/15 01:06:06;;;;;;;17.10;10.85;;;11.70;99.90;;;;;;4990811;28;20034;-85
2023/09/15 01:08:34;;;;;;;18.90;10.80;;;11.70;99.90;;;;;;4990286;28;20122;-84
2023/09/15 01:11:03;;;;;;;19.83;10.65;;;11.70;99.90;;;;;;4955657;28;20042;-85
2023/09/15 01:13:30;;;;;;;16.38;10.68;;;11.70;99.90;;;;;;4976496;28;20042;-85
2023/09/15 01:15:59;;;;;;;13.40;9.95;;;11.70;99.90;;;;;;4973371;28;20031;-85
2023/09/15 01:18:28;;;;;;;15.57;10.90;;;11.60;99.90;;;;;;4990405;28;20054;-85
2023/09/15 01:21:12;;;;;;;18.48;9.75;;;11.60;99.90;;;;;;4991294;28;20056;-85
2023/09/15 01:24:03;;;;;;;18.85;10.85;;;11.60;99.90;;;;;;4990468;28;20061;-85
2023/09/15 01:27:12;;;;;;;17.92;9.77;;;11.60;99.90;;;;;;4980410;28;20486;-85
2023/09/15 01:29:47;;;;;;;19.67;11.45;;;11.60;99.90;;;;;;4969114;28;20034;-85
2023/09/15 01:32:14;;;;;;;14.25;10.15;;;11.50;99.90;;;;;;4965896;28;20121;-85
2023/09/15 01:34:48;;;;;;;15.25;11.10;;;11.50;99.90;;;;;;4986942;28;20751;-86
2023/09/15 01:37:13;;;;;;;15.02;10.55;;;11.50;99.90;;;;;;4986746;28;20951;-85
2023/09/15 01:39:39;;;;;;;18.50;12.35;;;11.50;99.90;;;;;;4974356;28;20026;-85
2023/09/15 01:42:04;;;;;;;16.17;11.38;;;11.40;99.90;;;;;;4990723;28;20105;-85
2023/09/15 01:44:30;;;;;;;22.65;13.00;;;11.40;99.90;;;;;;4976223;28;20031;-85
2023/09/15 01:46:56;;;;;;;15.73;12.02;;;11.40;99.90;;;;;;4989050;28;20034;-85
2023/09/15 01:49:22;;;;;;;14.57;12.63;;;11.40;99.90;;;;;;4991311;28;20030;-85
2023/09/15 01:51:48;;;;;;;16.52;11.25;;;11.40;99.90;;;;;;4989921;28;20406;-85
2023/09/15 01:54:15;;;;;;;19.77;13.00;;;11.40;99.90;;;;;;4991856;28;20040;-85
2023/09/15 01:56:40;;;;;;;19.85;13.18;;;11.30;99.90;;;;;;4990442;28;20034;-85
2023/09/15 01:59:06;;;;;;;20.83;14.18;;;11.40;99.90;;;;;;4984839;28;20023;-85
2023/09/15 02:01:32;;;;;;;18.60;13.93;;;11.30;99.90;;;;;;4991515;28;20041;-85
2023/09/15 02:03:57;;;;;;;19.63;13.98;;;11.30;99.90;;;;;;4991306;28;20058;-84
2023/09/15 02:06:23;;;;;;;21.65;13.88;;;11.30;99.90;;;;;;4972870;28;20026;-85
2023/09/15 02:08:49;;;;;;;19.77;14.68;;;11.30;99.90;;;;;;4992217;28;20050;-85
2023/09/15 02:11:14;;;;;;;20.17;14.55;;;11.20;99.90;;;;;;4982135;28;20042;-85
2023/09/15 02:13:41;;;;;;;19.42;14.48;;;11.20;99.90;;;;;;4991571;28;20034;-85
2023/09/15 02:16:06;;;;;;;22.58;14.90;;;11.20;99.90;;;;;;4991487;28;20030;-85
2023/09/15 02:18:32;;;;;;;20.30;14.55;;;11.20;99.90;;;;;;4992534;28;20027;-85
2023/09/15 02:20:58;;;;;;;25.95;16.42;;;11.20;99.90;;;;;;4990972;28;20035;-85
2023/09/15 02:23:24;;;;;;;26.27;18.55;;;11.20;99.90;;;;;;4987025;28;20137;-85
2023/09/15 02:25:51;;;;;;;29.88;17.70;;;11.20;99.90;;;;;;4981641;28;20030;-86
2023/09/15 02:28:19;;;;;;;23.52;17.17;;;11.20;99.90;;;;;;4994617;28;20025;-86
2023/09/15 02:30:44;;;;;;;27.25;18.48;;;11.20;99.90;;;;;;4994243;28;20050;-85
2023/09/15 02:33:10;;;;;;;24.85;18.02;;;11.20;99.90;;;;;;4993375;28;20022;-85
2023/09/15 02:35:35;;;;;;;21.00;16.27;;;11.20;99.90;;;;;;4993717;28;20117;-85
2023/09/15 02:38:01;;;;;;;25.13;18.48;;;11.20;99.90;;;;;;4995253;28;20030;-85
2023/09/15 02:40:26;;;;;;;22.83;16.98;;;11.10;99.90;;;;;;4994478;28;20037;-86
2023/09/15 02:42:52;;;;;;;33.25;18.73;;;11.10;99.90;;;;;;4992859;28;20023;-84
2023/09/15 02:45:17;;;;;;;26.55;17.52;;;11.10;99.90;;;;;;4976873;28;20041;-85
2023/09/15 02:47:43;;;;;;;26.92;16.83;;;11.00;99.90;;;;;;4995336;28;20022;-85
2023/09/15 02:50:09;;;;;;;28.08;19.73;;;11.00;99.90;;;;;;4992599;28;20430;-86
2023/09/15 02:52:34;;;;;;;26.65;19.65;;;11.00;99.90;;;;;;4991284;28;20030;-86
2023/09/15 02:55:00;;;;;;;28.30;20.73;;;11.00;99.90;;;;;;4992692;28;20466;-86
2023/09/15 02:57:26;;;;;;;29.60;19.45;;;11.00;99.90;;;;;;4993572;28;20065;-86
2023/09/15 02:59:54;;;;;;;23.67;17.75;;;11.00;99.90;;;;;;4993630;28;20026;-86
2023/09/15 03:02:23;;;;;;;27.08;19.15;;;11.10;99.90;;;;;;4992718;28;20479;-86
2023/09/15 03:04:49;;;;;;;27.30;19.85;;;11.00;99.90;;;;;;4992955;28;20495;-86
2023/09/15 03:07:15;;;;;;;23.75;18.38;;;11.00;99.90;;;;;;4994142;28;20033;-86
2023/09/15 03:09:43;;;;;;;26.45;19.48;;;11.00;99.90;;;;;;4993823;28;20022;-86
2023/09/15 03:12:08;;;;;;;28.73;20.90;;;11.00;99.90;;;;;;4991118;28;20054;-86
2023/09/15 03:14:34;;;;;;;25.30;19.40;;;11.00;99.90;;;;;;4979306;28;20023;-86
2023/09/15 03:17:07;;;;;;;30.65;20.33;;;11.00;99.90;;;;;;4958073;28;20031;-86
2023/09/15 03:19:33;;;;;;;26.98;19.60;;;11.00;99.90;;;;;;4982902;28;20450;-86
2023/09/15 03:21:59;;;;;;;27.63;20.42;;;11.00;99.90;;;;;;4992538;28;20040;-86
2023/09/15 03:24:27;;;;;;;26.92;19.65;;;11.00;99.90;;;;;;4982855;28;20031;-85
2023/09/15 03:26:53;;;;;;;24.33;18.85;;;11.00;99.90;;;;;;4992823;28;20383;-86
2023/09/15 03:29:18;;;;;;;31.45;21.92;;;11.00;99.90;;;;;;4977143;28;20030;-85
2023/09/15 03:32:07;;;;;;;28.42;20.60;;;10.90;99.90;;;;;;4991222;28;20034;-86
2023/09/15 03:34:42;;;;;;;24.25;18.33;;;10.90;99.90;;;;;;4970461;28;20026;-86
2023/09/15 03:37:07;;;;;;;26.08;19.42;;;10.90;99.90;;;;;;4992126;28;20047;-86
2023/09/15 03:39:36;;;;;;;25.77;19.00;;;10.90;99.90;;;;;;4992819;28;20015;-86
2023/09/15 03:42:01;;;;;;;27.80;20.17;;;10.90;99.90;;;;;;4990894;28;20026;-86
2023/09/15 03:44:27;;;;;;;25.60;18.80;;;10.90;99.90;;;;;;4983476;28;20026;-86
2023/09/15 03:46:52;;;;;;;22.92;17.65;;;10.80;99.90;;;;;;4973519;28;20085;-86
2023/09/15 03:49:18;;;;;;;27.92;18.65;;;10.90;99.90;;;;;;4976498;28;20065;-86
2023/09/15 03:51:43;;;;;;;24.42;17.60;;;10.80;99.90;;;;;;4990186;28;20034;-86
2023/09/15 03:54:09;;;;;;;24.90;19.30;;;10.80;99.90;;;;;;4983194;28;20037;-87
2023/09/15 03:56:35;;;;;;;25.10;18.80;;;10.80;99.90;;;;;;4992867;28;20390;-86
2023/09/15 03:59:01;;;;;;;24.83;17.63;;;10.80;99.90;;;;;;4993391;28;20378;-86
2023/09/15 04:01:26;;;;;;;26.38;19.35;;;10.80;99.90;;;;;;4991734;28;20035;-86
2023/09/15 04:03:52;;;;;;;23.10;17.08;;;10.90;99.90;;;;;;4990487;28;20502;-85
2023/09/15 04:06:18;;;;;;;25.42;19.33;;;10.80;99.90;;;;;;4992070;28;20041;-86
2023/09/15 04:08:45;;;;;;;24.45;17.80;;;10.80;99.90;;;;;;4992439;28;20471;-86
2023/09/15 04:11:10;;;;;;;30.63;18.50;;;10.80;99.90;;;;;;4991736;28;20042;-87
2023/09/15 04:13:36;;;;;;;24.50;19.00;;;10.70;99.90;;;;;;4965515;28;20057;-86
2023/09/15 04:16:01;;;;;;;22.92;17.33;;;10.70;99.90;;;;;;4974138;28;20124;-87
2023/09/15 04:18:27;;;;;;;28.20;19.65;;;10.80;99.90;;;;;;4992620;28;20034;-87
2023/09/15 04:20:55;;;;;;;19.27;15.43;;;10.70;99.90;;;;;;4991475;28;20018;-86
2023/09/15 04:23:21;;;;;;;27.73;18.50;;;10.80;99.90;;;;;;4993009;28;20045;-86
2023/09/15 04:25:48;;;;;;;27.13;19.25;;;10.70;99.90;;;;;;4992285;28;20030;-86
2023/09/15 04:28:13;;;;;;;24.23;17.00;;;10.70;99.90;;;;;;4992064;28;20054;-86
2023/09/15 04:30:38;;;;;;;29.30;19.23;;;10.80;99.90;;;;;;4993310;28;20298;-86
2023/09/15 04:33:04;;;;;;;20.98;16.00;;;10.70;99.90;;;;;;4989360;28;20030;-86
2023/09/15 04:35:29;;;;;;;26.80;18.67;;;10.70;99.90;;;;;;4992656;28;20539;-87
2023/09/15 04:37:55;;;;;;;26.33;17.48;;;10.60;99.90;;;;;;4991622;28;20033;-86
2023/09/15 04:40:21;;;;;;;23.98;17.42;;;10.60;99.90;;;;;;4993061;28;20037;-86
2023/09/15 04:42:47;;;;;;;26.20;18.20;;;10.60;99.90;;;;;;4990876;28;20026;-86
2023/09/15 04:45:12;;;;;;;26.23;19.05;;;10.70;99.90;;;;;;4990745;28;20395;-86
2023/09/15 04:47:40;;;;;;;27.45;18.67;;;10.70;99.90;;;;;;4993066;28;20022;-86
2023/09/15 04:50:07;;;;;;;26.55;19.08;;;10.70;99.90;;;;;;4991034;28;20053;-86
2023/09/15 04:52:33;;;;;;;26.13;19.13;;;10.60;99.90;;;;;;4989793;28;20050;-85
2023/09/15 04:54:58;;;;;;;22.35;17.90;;;10.60;99.90;;;;;;4982345;28;20088;-87
2023/09/15 04:57:24;;;;;;;26.02;17.67;;;10.60;99.90;;;;;;4957238;28;20038;-87
2023/09/15 04:59:53;;;;;;;27.65;19.70;;;10.60;99.90;;;;;;4990996;28;20018;-86
2023/09/15 05:02:26;;;;;;;25.10;18.13;;;10.60;99.90;;;;;;4970031;28;20025;-87
2023/09/15 05:04:55;;;;;;;27.20;18.88;;;10.60;99.90;;;;;;4988888;28;20084;-87
2023/09/15 05:07:20;;;;;;;28.00;18.83;;;10.60;99.90;;;;;;4975460;28;20030;-87
2023/09/15 05:09:46;;;;;;;27.27;18.90;;;10.70;99.90;;;;;;4978460;28;20038;-87
2023/09/15 05:12:13;;;;;;;27.65;19.02;;;10.70;99.90;;;;;;4974947;28;20054;-87
2023/09/15 05:14:39;;;;;;;27.25;18.30;;;10.70;99.90;;;;;;4991111;28;20037;-87
2023/09/15 05:17:05;;;;;;;27.58;20.00;;;10.70;99.90;;;;;;4990844;28;20125;-86
2023/09/15 05:19:30;;;;;;;26.10;18.92;;;10.70;99.90;;;;;;4973413;28;20110;-87
2023/09/15 05:21:56;;;;;;;24.90;18.45;;;10.70;99.90;;;;;;4964347;28;20037;-87
2023/09/15 05:24:21;;;;;;;30.05;19.08;;;10.70;99.90;;;;;;4990116;28;20030;-87
2023/09/15 05:26:47;;;;;;;23.95;18.27;;;10.70;99.90;;;;;;4990727;28;20449;-87
2023/09/15 05:29:12;;;;;;;29.05;18.45;;;10.70;99.90;;;;;;4989461;28;21421;-87
2023/09/15 05:31:38;;;;;;;42.65;29.15;;;10.80;99.90;;;;;;4970507;28;20030;-85
2023/09/15 05:34:04;;;;;;;29.88;20.98;;;10.80;99.90;;;;;;4982412;28;20037;-86
2023/09/15 05:36:29;;;;;;;29.05;20.35;;;10.80;99.90;;;;;;4962664;28;20058;-87
2023/09/15 05:38:55;;;;;;;28.88;19.38;;;10.90;99.90;;;;;;4970661;28;20053;-87
2023/09/15 05:41:20;;;;;;;23.17;17.17;;;10.90;99.90;;;;;;4991576;28;20030;-87
2023/09/15 05:43:46;;;;;;;26.08;18.33;;;10.90;99.90;;;;;;4990273;28;20026;-87
2023/09/15 05:46:12;;;;;;;25.48;18.33;;;10.90;99.90;;;;;;4969790;28;20088;-87
2023/09/15 05:48:37;;;;;;;28.38;18.73;;;10.90;99.90;;;;;;4991543;28;20072;-87
2023/09/15 05:51:04;;;;;;;24.33;17.17;;;10.90;99.90;;;;;;4991025;28;20047;-87
2023/09/15 05:53:31;;;;;;;28.10;18.15;;;10.90;99.90;;;;;;4987404;28;20093;-86
2023/09/15 05:55:57;;;;;;;22.23;16.58;;;10.90;99.90;;;;;;4988713;28;20070;-87
2023/09/15 05:58:23;;;;;;;26.15;17.63;;;10.90;99.90;;;;;;4993206;28;20022;-87
2023/09/15 06:00:50;;;;;;;26.80;17.67;;;10.90;99.90;;;;;;4993069;28;20045;-87
2023/09/15 06:03:16;;;;;;;23.00;17.00;;;10.90;99.90;;;;;;4996907;28;20066;-87
2023/09/15 06:05:42;;;;;;;24.65;16.65;;;11.00;99.90;;;;;;4993698;28;20062;-87
2023/09/15 06:08:08;;;;;;;21.50;16.10;;;11.00;99.90;;;;;;4994231;28;20041;-87
2023/09/15 06:10:36;;;;;;;22.38;16.33;;;11.00;99.90;;;;;;4977693;28;20077;-87
2023/09/15 06:13:01;;;;;;;23.50;16.27;;;11.10;99.90;;;;;;4988181;28;20101;-87
2023/09/15 06:15:27;;;;;;;19.73;15.48;;;11.20;99.90;;;;;;5002033;28;20026;-87
2023/09/15 06:17:52;;;;;;;22.33;15.50;;;11.20;99.90;;;;;;4984278;28;20030;-87
2023/09/15 06:20:18;;;;;;;23.50;16.17;;;11.20;99.90;;;;;;4993428;28;20027;-86
2023/09/15 06:22:44;;;;;;;25.20;17.27;;;11.40;99.90;;;;;;4995490;28;20447;-87
2023/09/15 06:25:10;;;;;;;22.58;16.15;;;11.40;99.90;;;;;;4994710;28;20053;-87
2023/09/15 06:27:35;;;;;;;22.95;17.55;;;11.50;99.90;;;;;;4992727;28;20498;-87
2023/09/15 06:30:03;;;;;;;22.75;15.27;;;11.50;99.90;;;;;;4994056;28;20037;-87
2023/09/15 06:32:28;;;;;;;23.77;16.30;;;11.60;99.90;;;;;;4992944;28;20027;-87
2023/09/15 06:34:54;;;;;;;28.23;17.17;;;11.70;99.90;;;;;;4990286;28;20033;-87
2023/09/15 06:37:20;;;;;;;20.40;14.68;;;11.80;99.90;;;;;;4978319;28;20073;-87
2023/09/15 06:39:45;;;;;;;22.13;15.70;;;11.90;99.90;;;;;;4977594;28;20022;-87
2023/09/15 06:42:11;;;;;;;27.33;17.77;;;12.00;99.90;;;;;;4978459;28;20027;-87
2023/09/15 06:44:37;;;;;;;23.88;15.18;;;12.10;99.90;;;;;;4994286;28;20132;-89
2023/09/15 06:47:03;;;;;;;24.10;15.07;;;12.20;99.90;;;;;;4994375;28;20041;-88
2023/09/15 06:49:30;;;;;;;25.55;15.80;;;12.20;99.90;;;;;;4994432;28;20026;-87
2023/09/15 06:51:56;;;;;;;20.20;14.52;;;12.40;99.90;;;;;;4993570;28;20077;-87
2023/09/15 06:54:21;;;;;;;22.20;15.15;;;12.50;99.90;;;;;;4987116;28;20045;-87
2023/09/15 06:56:47;;;;;;;25.33;13.57;;;12.60;99.90;;;;;;4976813;28;20037;-87
2023/09/15 06:59:13;;;;;;;17.90;12.32;;;12.60;99.90;;;;;;4990474;28;20050;-88
2023/09/15 07:01:39;;;;;;;18.50;12.13;;;12.70;99.90;;;;;;4974196;28;20117;-88
2023/09/15 07:04:06;;;;;;;15.82;11.70;;;12.90;99.90;;;;;;4990322;28;20126;-88
2023/09/15 07:06:35;;;;;;;15.20;11.77;;;13.00;99.90;;;;;;4988101;28;20025;-89
2023/09/15 07:09:00;;;;;;;17.73;11.20;;;13.10;99.90;;;;;;4972798;28;20113;-87
2023/09/15 07:11:26;;;;;;;14.43;10.57;;;13.20;99.90;;;;;;4978081;28;20130;-89
2023/09/15 07:13:52;;;;;;;16.75;10.77;;;13.30;99.90;;;;;;4985991;28;20053;-89
2023/09/15 07:16:18;;;;;;;20.45;10.10;;;13.50;99.90;;;;;;4971546;28;20035;-87
2023/09/15 07:18:46;;;;;;;14.90;8.30;;;13.60;99.90;;;;;;4971149;28;20026;-87
2023/09/15 07:21:11;;;;;;;15.02;9.18;;;13.70;99.90;;;;;;4989525;28;20033;-88
2023/09/15 07:23:37;;;;;;;13.32;8.23;;;13.80;99.90;;;;;;4989292;28;20022;-88
2023/09/15 07:26:02;;;;;;;15.13;9.18;;;14.00;99.90;;;;;;4973980;28;20035;-87
2023/09/15 07:28:28;;;;;;;16.45;8.40;;;14.20;99.90;;;;;;4987233;28;20023;-87
2023/09/15 07:31:04;;;;;;;13.82;7.80;;;14.30;99.90;;;;;;4989809;28;20443;-87
2023/09/15 07:33:30;;;;;;;15.02;7.78;;;14.40;99.90;;;;;;4973463;28;20034;-88
2023/09/15 07:36:07;;;;;;;11.10;6.47;;;14.50;99.90;;;;;;4988493;28;20037;-87
2023/09/15 07:38:32;;;;;;;11.00;6.18;;;14.70;99.90;;;;;;4974553;28;20459;-86
2023/09/15 07:40:58;;;;;;;12.60;7.18;;;14.80;99.90;;;;;;4988897;28;20046;-88
2023/09/15 07:43:24;;;;;;;14.52;5.90;;;14.90;99.90;;;;;;4990809;28;20129;-88
2023/09/15 07:45:50;;;;;;;10.10;5.15;;;15.00;99.90;;;;;;4973907;28;20042;-89
2023/09/15 07:48:16;;;;;;;12.95;5.15;;;15.10;99.90;;;;;;4989865;28;20026;-88
2023/09/15 07:50:42;;;;;;;7.68;4.75;;;15.20;99.90;;;;;;4990268;28;20042;-88
2023/09/15 07:53:08;;;;;;;9.20;4.75;;;15.20;99.90;;;;;;4987609;28;20027;-87
2023/09/15 07:55:34;;;;;;;11.18;4.90;;;15.30;99.90;;;;;;4988193;28;20039;-87
2023/09/15 07:57:59;;;;;;;7.60;4.53;;;15.40;99.90;;;;;;4989273;28;20065;-87
2023/09/15 08:00:25;;;;;;;11.85;4.60;;;15.60;99.90;;;;;;4983484;28;20027;-87
2023/09/15 08:02:50;;;;;;;8.98;5.00;;;15.70;99.90;;;;;;4981008;28;20086;-88
2023/09/15 08:05:16;;;;;;;12.45;4.82;;;15.80;99.90;;;;;;4977582;28;20129;-85
2023/09/15 08:07:46;;;;;;;8.65;3.90;;;15.90;99.90;;;;;;4989363;28;20023;-87
2023/09/15 08:10:12;;;;;;;13.13;5.13;;;16.00;99.90;;;;;;4989067;28;20049;-88
2023/09/15 08:12:38;;;;;;;9.55;3.85;;;16.10;99.90;;;;;;4989421;28;20051;-87
2023/09/15 08:15:05;;;;;;;8.48;4.28;;;16.30;99.90;;;;;;4988392;28;20038;-87
2023/09/15 08:17:31;;;;;;;7.45;3.75;;;16.30;99.90;;;;;;4995031;28;20034;-87
2023/09/15 08:19:56;;;;;;;9.07;3.65;;;16.50;99.90;;;;;;4968814;28;20027;-87
2023/09/15 08:22:23;;;;;;;7.90;3.85;;;16.60;99.90;;;;;;4989022;28;20031;-88
2023/09/15 08:24:49;;;;;;;6.88;3.10;;;16.70;99.90;;;;;;4983977;28;20046;-86
2023/09/15 08:27:15;;;;;;;11.00;4.05;;;16.80;99.90;;;;;;4989162;28;20046;-86
2023/09/15 08:29:40;;;;;;;7.38;3.45;;;16.90;99.90;;;;;;4989239;28;20022;-87
2023/09/15 08:32:08;;;;;;;8.55;2.80;;;16.90;99.90;;;;;;4988292;28;20395;-87
2023/09/15 08:34:33;;;;;;;7.53;2.90;;;17.00;99.90;;;;;;4987379;28;20031;-87
2023/09/15 08:37:02;;;;;;;5.47;2.38;;;17.00;99.90;;;;;;4972778;28;20041;-86
2023/09/15 08:39:28;;;;;;;7.57;2.17;;;17.10;99.90;;;;;;4988941;28;20027;-87
2023/09/15 08:42:01;;;;;;;5.22;2.47;;;17.20;99.90;;;;;;4987973;28;20038;-87
2023/09/15 08:44:30;;;;;;;5.07;2.13;;;17.30;99.90;;;;;;4988172;28;20041;-86
2023/09/15 08:46:56;;;;;;;5.88;2.00;;;17.50;99.90;;;;;;4955792;28;20027;-86
2023/09/15 08:49:23;;;;;;;6.97;2.10;;;17.50;99.90;;;;;;4976453;28;20022;-86
2023/09/15 08:51:50;;;;;;;6.28;1.73;;;17.60;99.90;;;;;;4972753;28;20550;-86
2023/09/15 08:54:16;;;;;;;6.07;2.13;;;17.70;99.90;;;;;;4984496;28;20031;-86
2023/09/15 08:56:44;;;;;;;6.10;1.95;;;17.80;99.90;;;;;;4980643;28;20071;-86
2023/09/15 08:59:10;;;;;;;7.30;2.35;;;17.90;99.90;;;;;;4961662;28;20081;-86
2023/09/15 09:01:36;;;;;;;5.03;1.88;;;18.00;99.90;;;;;;4988311;28;20045;-86
2023/09/15 09:04:03;;;;;;;6.25;2.00;;;18.20;99.90;;;;;;4987851;28;20031;-85
2023/09/15 09:06:32;;;;;;;4.18;1.90;;;18.20;99.90;;;;;;4986901;28;20109;-86
2023/09/15 09:08:58;;;;;;;6.72;2.13;;;18.30;99.90;;;;;;4986886;28;20081;-86
2023/09/15 09:11:23;;;;;;;7.13;2.78;;;18.50;99.90;;;;;;4988461;28;20063;-86
2023/09/15 09:13:53;;;;;;;8.15;2.17;;;18.60;99.90;;;;;;4988525;28;20137;-86
2023/09/15 09:16:20;;;;;;;8.45;2.20;;;18.70;99.90;;;;;;4987770;28;20023;-86
2023/09/15 09:18:56;;;;;;;5.88;2.35;;;18.80;99.90;;;;;;4955794;28;20034;-86
2023/09/15 09:21:26;;;;;;;5.93;2.28;;;18.80;99.90;;;;;;4988459;28;20030;-86
2023/09/15 09:23:51;;;;;;;7.90;2.50;;;18.90;99.90;;;;;;4987706;28;20054;-86
2023/09/15 09:26:17;;;;;;;6.90;2.22;;;19.00;99.90;;;;;;4987879;28;20023;-86
2023/09/15 09:28:43;;;;;;;6.22;2.40;;;19.00;99.90;;;;;;4970006;28;20035;-86
2023/09/15 09:31:09;;;;;;;5.85;2.03;;;19.10;99.90;;;;;;4954726;28;20038;-86
2023/09/15 09:33:37;;;;;;;7.07;2.20;;;19.20;99.90;;;;;;4972005;28;20041;-86
2023/09/15 09:36:13;;;;;;;5.90;2.10;;;19.20;99.90;;;;;;4979831;28;20050;-86
2023/09/15 09:38:44;;;;;;;3.67;1.90;;;19.30;99.90;;;;;;4988511;28;20118;-87
2023/09/15 09:41:10;;;;;;;3.28;1.92;;;19.40;99.90;;;;;;4970947;28;20529;-86
2023/09/15 09:43:40;;;;;;;6.32;2.20;;;19.40;99.90;;;;;;4971656;28;20026;-86
2023/09/15 09:46:06;;;;;;;4.38;1.95;;;19.40;99.90;;;;;;4985868;28;20031;-86
2023/09/15 09:48:38;;;;;;;5.80;2.10;;;19.50;99.90;;;;;;4960608;28;20026;-86
2023/09/15 09:51:05;;;;;;;3.42;1.67;;;19.60;99.90;;;;;;4985788;28;20483;-86
2023/09/15 09:53:33;;;;;;;4.30;1.73;;;19.70;99.90;;;;;;4969993;28;20057;-86
2023/09/15 09:56:00;;;;;;;5.05;2.28;;;19.80;99.90;;;;;;4988324;28;20031;-86
2023/09/15 09:58:26;;;;;;;3.92;2.05;;;19.80;99.90;;;;;;4969307;28;20039;-87
2023/09/15 10:00:52;;;;;;;4.32;1.65;;;19.90;99.90;;;;;;4952750;28;20570;-86
2023/09/15 10:03:18;;;;;;;5.22;2.20;;;20.00;99.90;;;;;;4966605;28;20039;-86
2023/09/15 10:05:44;;;;;;;7.10;1.90;;;20.00;99.90;;;;;;4970676;28;20081;-86
2023/09/15 10:08:10;;;;;;;9.07;3.40;;;20.10;99.90;;;;;;4970925;28;20035;-86
2023/09/15 10:10:41;;;;;;;4.93;2.47;;;20.10;99.90;;;;;;4971837;28;20042;-86
2023/09/15 10:13:08;;;;;;;5.82;2.45;;;20.20;99.90;;;;;;4982704;28;20866;-86
2023/09/15 10:15:35;;;;;;;5.30;2.42;;;20.30;99.90;;;;;;4973801;28;20391;-86
2023/09/15 10:18:02;;;;;;;5.32;3.05;;;20.40;99.90;;;;;;4973210;28;20448;-85
2023/09/15 10:20:29;;;;;;;4.40;2.50;;;20.40;99.90;;;;;;4963241;28;20027;-85
2023/09/15 10:22:55;;;;;;;4.70;2.30;;;20.50;99.90;;;;;;4984837;28;20022;-85
2023/09/15 10:25:21;;;;;;;6.90;2.72;;;20.60;99.90;;;;;;4993514;28;20033;-86
2023/09/15 10:27:46;;;;;;;5.63;2.42;;;20.70;99.90;;;;;;4992757;28;20390;-85
2023/09/15 10:30:13;;;;;;;5.18;2.30;;;20.70;99.90;;;;;;4971325;28;20021;-85
2023/09/15 10:32:39;;;;;;;4.88;3.00;;;20.80;99.90;;;;;;4986848;28;20483;-86
2023/09/15 10:35:05;;;;;;;5.90;2.50;;;20.90;99.90;;;;;;4991908;28;20031;-86
2023/09/15 10:37:32;;;;;;;5.43;2.20;;;20.90;99.90;;;;;;4974691;28;20029;-89
2023/09/15 10:39:59;;;;;;;8.38;2.80;;;21.00;99.90;;;;;;4963924;28;20047;-84
2023/09/15 10:42:26;;;;;;;7.28;2.47;;;21.00;99.90;;;;;;4984131;28;20023;-87
2023/09/15 10:44:51;;;;;;;6.18;2.33;;;21.10;99.90;;;;;;4987282;28;20027;-86
2023/09/15 10:47:17;;;;;;;6.13;2.13;;;21.10;99.90;;;;;;4974383;28;20031;-87
2023/09/15 10:49:51;;;;;;;8.57;3.78;;;21.20;99.90;;;;;;4976408;28;20034;-86
2023/09/15 10:52:16;;;;;;;6.35;3.28;;;21.20;99.90;;;;;;4996307;28;20053;-86
2023/09/15 10:54:42;;;;;;;3.25;2.42;;;21.30;99.90;;;;;;4975199;28;20069;-86
2023/09/15 10:57:08;;;;;;;3.83;2.15;;;21.20;99.90;;;;;;4975910;28;20034;-86
2023/09/15 10:59:36;;;;;;;5.18;2.60;;;21.30;99.90;;;;;;4994191;28;20027;-85
2023/09/15 11:02:01;;;;;;;6.47;3.35;;;21.40;99.90;;;;;;4991426;28;20030;-85
2023/09/15 11:04:29;;;;;;;7.72;3.83;;;21.40;99.90;;;;;;4978537;28;20537;-85
2023/09/15 11:06:54;;;;;;;6.05;3.50;;;21.40;99.90;;;;;;4971687;28;20034;-85
2023/09/15 11:09:21;;;;;;;6.35;3.53;;;21.50;99.90;;;;;;4993720;28;20030;-84
2023/09/15 11:11:49;;;;;;;7.38;2.35;;;21.60;99.90;;;;;;4978413;28;20513;-86
2023/09/15 11:14:16;;;;;;;5.32;2.88;;;21.60;99.90;;;;;;4996295;28;20034;-85
2023/09/15 11:16:44;;;;;;;5.85;2.63;;;21.60;99.90;;;;;;4995986;28;20169;-86
2023/09/15 11:19:11;;;;;;;6.00;2.55;;;21.70;99.90;;;;;;4979300;28;20023;-87
2023/09/15 11:21:36;;;;;;;7.75;2.90;;;21.80;99.90;;;;;;4996312;28;20027;-86
2023/09/15 11:24:03;;;;;;;5.07;2.22;;;21.80;99.90;;;;;;4996150;28;20053;-85
2023/09/15 11:26:29;;;;;;;4.45;2.72;;;21.90;99.90;;;;;;4995737;28;20101;-86
2023/09/15 11:28:55;;;;;;;5.10;2.92;;;21.90;99.90;;;;;;4981230;28;20142;-86
2023/09/15 11:31:21;;;;;;;5.43;2.50;;;21.90;99.90;;;;;;4978329;28;20058;-86
2023/09/15 11:33:47;;;;;;;4.95;2.25;;;21.90;99.90;;;;;;4978607;28;20022;-85
2023/09/15 11:36:15;;;;;;;4.60;2.30;;;21.90;99.90;;;;;;4995457;28;20102;-86
2023/09/15 11:38:41;;;;;;;5.88;2.55;;;22.00;99.90;;;;;;4995198;28;20069;-85
2023/09/15 11:41:07;;;;;;;6.13;3.45;;;22.10;99.90;;;;;;4977982;28;20220;-85
2023/09/15 11:43:33;;;;;;;8.68;3.25;;;22.10;99.90;;;;;;4994432;28;20031;-86
2023/09/15 11:46:00;;;;;;;5.95;2.72;;;22.20;99.90;;;;;;4973965;28;20034;-86
2023/09/15 11:48:26;;;;;;;5.18;2.75;;;22.20;99.90;;;;;;4974857;28;20061;-86
2023/09/15 11:50:53;;;;;;;6.53;2.53;;;22.20;99.90;;;;;;4981004;28;20088;-86
2023/09/15 11:53:24;;;;;;;5.97;2.75;;;22.30;99.90;;;;;;4978270;28;20069;-86
2023/09/15 11:55:53;;;;;;;5.93;2.45;;;22.40;99.90;;;;;;4974076;28;20030;-86
2023/09/15 11:58:19;;;;;;;3.97;1.88;;;22.50;99.90;;;;;;5005419;28;20030;-86
2023/09/15 12:00:45;;;;;;;4.85;2.70;;;22.50;99.90;;;;;;4984705;28;20502;-86
2023/09/15 12:03:11;;;;;;;6.57;3.30;;;22.50;99.90;;;;;;4975188;28;20022;-86
2023/09/15 12:05:37;;;;;;;5.50;2.58;;;22.60;99.90;;;;;;4973308;28;20030;-86
2023/09/15 12:08:02;;;;;;;5.50;2.00;;;22.60;99.90;;;;;;4980682;28;20093;-86
2023/09/15 12:10:29;;;;;;;8.43;3.63;;;22.70;99.90;;;;;;4996169;28;20038;-86
2023/09/15 12:12:58;;;;;;;6.63;2.45;;;22.70;99.90;;;;;;4994342;28;20082;-86
2023/09/15 12:15:26;;;;;;;5.05;3.15;;;22.80;99.90;;;;;;4982542;28;20502;-86
2023/09/15 12:17:52;;;;;;;6.05;2.58;;;22.80;99.90;;;;;;4993875;28;20726;-86
2023/09/15 12:20:23;;;;;;;4.18;2.60;;;22.80;99.90;;;;;;4994877;28;20034;-85
2023/09/15 12:22:49;;;;;;;6.05;2.78;;;22.90;99.60;;;;;;4977430;28;20034;-85
2023/09/15 12:25:16;;;;;;;5.57;2.20;;;22.90;99.70;;;;;;4975806;28;20037;-85
2023/09/15 12:27:42;;;;;;;4.82;2.00;;;22.90;99.90;;;;;;4996352;28;20120;-84
2023/09/15 12:30:10;;;;;;;4.40;1.95;;;23.00;99.60;;;;;;4987815;28;20049;-86
2023/09/15 12:32:36;;;;;;;4.57;1.90;;;23.20;99.20;;;;;;4985018;28;20121;-86